createdAt,value
2023-01-04T00:00:18.474Z,101631.47
2023-01-04T00:02:49.503Z,101626.78
2023-01-04T00:05:20.091Z,101613.72
2023-01-04T00:07:53.183Z,101614.41
2023-01-04T00:10:23.590Z,101606.16
2023-01-04T00:12:54.065Z,101606.47
2023-01-04T00:15:24.605Z,101587.00
2023-01-04T00:17:55.275Z,101577.19
2023-01-04T00:20:25.729Z,101575.38
2023-01-04T00:22:58.768Z,101567.50
2023-01-04T00:25:29.635Z,101573.41
2023-01-04T00:28:00.116Z,101569.31
2023-01-04T00:30:30.579Z,101541.88
2023-01-04T00:33:01.045Z,101564.09
2023-01-04T00:35:45.244Z,101558.56
2023-01-04T00:38:19.360Z,101554.31
2023-01-04T00:40:49.854Z,101546.97
2023-01-04T00:43:20.387Z,101545.56
2023-01-04T00:45:51.022Z,101532.84
2023-01-04T00:48:21.552Z,101530.34
2023-01-04T00:50:53.897Z,101521.41
2023-01-04T00:53:26.967Z,101525.72
2023-01-04T00:56:03.199Z,101517.13
2023-01-04T00:58:33.726Z,101501.78
2023-01-04T01:01:08.462Z,101501.78
2023-01-04T01:03:39.974Z,101495.88
2023-01-04T01:06:12.543Z,101487.44
2023-01-04T01:08:45.740Z,101478.72
2023-01-04T01:11:16.447Z,101488.72
2023-01-04T01:13:47.559Z,101466.88
2023-01-04T01:16:51.939Z,101479.63
2023-01-04T01:19:14.927Z,101480.53
2023-01-04T01:21:45.687Z,101462.09
2023-01-04T01:24:22.098Z,101461.59
2023-01-04T01:26:52.646Z,101461.59
2023-01-04T01:29:23.391Z,101461.94
2023-01-04T01:31:54.478Z,101452.63
2023-01-04T01:34:25.283Z,101444.91
2023-01-04T01:36:56.151Z,101448.16
2023-01-04T01:39:29.363Z,101418.84
2023-01-04T01:41:59.797Z,101435.09
2023-01-04T01:45:01.792Z,101394.28
2023-01-04T01:47:41.118Z,101431.94
2023-01-04T01:50:23.490Z,101387.91
2023-01-04T01:52:57.090Z,101406.41
2023-01-04T01:55:33.428Z,101406.56
2023-01-04T01:58:06.117Z,101347.31
2023-01-04T02:00:37.606Z,101392.47
2023-01-04T02:03:16.825Z,101355.44
2023-01-04T02:05:49.995Z,101371.72
2023-01-04T02:08:22.617Z,101368.03
2023-01-04T02:10:56.218Z,101367.13
2023-01-04T02:13:51.322Z,101366.03
2023-01-04T02:16:30.656Z,101346.75
2023-01-04T02:19:23.577Z,101341.41
2023-01-04T02:22:16.745Z,101331.22
2023-01-04T02:25:05.631Z,101332.81
2023-01-04T02:27:55.924Z,101314.59
2023-01-04T02:31:08.774Z,101317.09
2023-01-04T02:33:49.440Z,101308.50
2023-01-04T02:36:26.646Z,101292.25
2023-01-04T02:39:08.724Z,101292.78
2023-01-04T02:41:46.777Z,101272.22
2023-01-04T02:44:33.281Z,101252.91
2023-01-04T02:47:11.719Z,101262.72
2023-01-04T02:49:59.073Z,101269.88
2023-01-04T02:52:34.980Z,101265.22
2023-01-04T02:55:09.204Z,101257.88
2023-01-04T02:57:52.048Z,101243.03
2023-01-04T03:00:57.873Z,101227.31
2023-01-04T03:03:50.072Z,101229.06
2023-01-04T03:06:26.754Z,101235.50
2023-01-04T03:09:02.500Z,101230.69
2023-01-04T03:11:53.879Z,101206.50
2023-01-04T03:14:32.032Z,101213.16
2023-01-04T03:17:08.344Z,101195.25
2023-01-04T03:19:55.843Z,101185.97
2023-01-04T03:22:45.639Z,101181.44
2023-01-04T03:25:31.140Z,101179.28
2023-01-04T03:28:15.901Z,101174.59
2023-01-04T03:31:06.233Z,101164.53
2023-01-04T03:33:49.273Z,101162.38
2023-01-04T03:36:38.817Z,101139.03
2023-01-04T03:39:31.701Z,101141.91
2023-01-04T03:42:19.922Z,101127.38
2023-01-04T03:45:10.478Z,101126.81
2023-01-04T03:48:01.311Z,101108.91
2023-01-04T03:50:40.317Z,101113.16
2023-01-04T03:53:15.468Z,101106.56
2023-01-04T03:55:48.345Z,101114.97
2023-01-04T03:58:18.979Z,101098.31
2023-01-04T04:00:49.873Z,101089.75
2023-01-04T04:03:20.576Z,101075.56
2023-01-04T04:06:03.563Z,101070.22
2023-01-04T04:08:36.873Z,101069.50
2023-01-04T04:11:20.090Z,101065.59
2023-01-04T04:13:51.131Z,101055.25
2023-01-04T04:16:21.987Z,101045.03
2023-01-04T04:18:52.676Z,101056.13
2023-01-04T04:21:23.342Z,101046.28
2023-01-04T04:23:57.992Z,101049.84
2023-01-04T04:26:28.673Z,101039.47
2023-01-04T04:28:59.491Z,101049.84
2023-01-04T04:31:30.212Z,101040.16
2023-01-04T04:34:01.242Z,101036.91
2023-01-04T04:36:32.122Z,101030.13
2023-01-04T04:39:05.483Z,101022.75
2023-01-04T04:41:39.882Z,101016.84
2023-01-04T04:44:12.420Z,101005.38
2023-01-04T04:46:43.327Z,101009.13
2023-01-04T04:49:14.488Z,100987.47
2023-01-04T04:51:46.514Z,100986.38
2023-01-04T04:54:22.105Z,100990.47
2023-01-04T04:56:53.245Z,100981.34
2023-01-04T04:59:23.907Z,100964.13
2023-01-04T05:01:54.983Z,100961.91
2023-01-04T05:04:25.878Z,100945.19
2023-01-04T05:06:56.298Z,100946.31
2023-01-04T05:09:29.345Z,100945.03
2023-01-04T05:12:12.386Z,100942.53
2023-01-04T05:14:43.181Z,100941.63
2023-01-04T05:17:13.789Z,100924.81
2023-01-04T05:19:44.475Z,100929.50
2023-01-04T05:22:15.023Z,100924.00
2023-01-04T05:24:48.494Z,100825.09
2023-01-04T05:27:19.232Z,100916.38
2023-01-04T05:30:02.141Z,100911.38
2023-01-04T05:32:32.701Z,100908.88
2023-01-04T05:35:03.359Z,100901.50
2023-01-04T05:37:34.163Z,100890.44
2023-01-04T05:40:08.142Z,100892.59
2023-01-04T05:42:38.745Z,100882.75
2023-01-04T05:45:10.539Z,100872.72
2023-01-04T05:47:41.245Z,100860.16
2023-01-04T05:50:12.944Z,100865.19
2023-01-04T05:52:43.671Z,100856.94
2023-01-04T05:55:16.809Z,100852.84
2023-01-04T05:57:47.448Z,100850.13
2023-01-04T06:00:18.517Z,100834.13
2023-01-04T06:02:49.598Z,100839.06
2023-01-04T06:05:20.366Z,100831.13
2023-01-04T06:07:51.141Z,100817.28
2023-01-04T06:10:24.529Z,100801.63
2023-01-04T06:12:55.025Z,100815.59
2023-01-04T06:15:25.534Z,100805.88
2023-01-04T06:17:56.396Z,100816.22
2023-01-04T06:20:27.130Z,100815.38
2023-01-04T06:23:00.261Z,100807.25
2023-01-04T06:25:33.455Z,100794.00
2023-01-04T06:28:04.120Z,100785.72
2023-01-04T06:30:35.313Z,100774.97
2023-01-04T06:33:05.948Z,100784.81
2023-01-04T06:35:36.623Z,100763.56
2023-01-04T06:38:07.083Z,100758.28
2023-01-04T06:40:40.257Z,100765.66
2023-01-04T06:43:10.804Z,100763.88
2023-01-04T06:45:41.585Z,100759.72
2023-01-04T06:48:12.094Z,100762.09
2023-01-04T06:50:48.932Z,100748.50
2023-01-04T06:53:19.375Z,100756.03
2023-01-04T06:55:52.488Z,100745.13
2023-01-04T06:58:22.936Z,100744.94
2023-01-04T07:00:54.538Z,100748.34
2023-01-04T07:03:25.785Z,100744.09
2023-01-04T07:05:56.316Z,100751.75
2023-01-04T07:08:27.047Z,100745.69
2023-01-04T07:11:00.197Z,100749.25
2023-01-04T07:13:31.102Z,100723.03
2023-01-04T07:16:01.902Z,100744.13
2023-01-04T07:18:32.729Z,100725.09
2023-01-04T07:21:03.387Z,100745.47
2023-01-04T07:23:33.880Z,100730.75
2023-01-04T07:26:07.760Z,100741.25
2023-01-04T07:28:50.776Z,100738.31
2023-01-04T07:31:21.807Z,100733.63
2023-01-04T07:33:53.659Z,100735.72
2023-01-04T07:36:24.292Z,100738.81
2023-01-04T07:38:54.869Z,100723.94
2023-01-04T07:41:27.894Z,100718.66
2023-01-04T07:43:58.339Z,100718.06
2023-01-04T07:46:28.901Z,100717.50
2023-01-04T07:48:59.403Z,100712.63
2023-01-04T07:51:29.793Z,100712.78
2023-01-04T07:54:00.281Z,100700.66
2023-01-04T07:56:33.235Z,100723.28
2023-01-04T07:59:04.554Z,100708.38
2023-01-04T08:01:35.706Z,100717.69
2023-01-04T08:04:06.441Z,100686.53
2023-01-04T08:06:38.243Z,100714.16
2023-01-04T08:09:09.894Z,100726.47
2023-01-04T08:11:43.078Z,100730.59
2023-01-04T08:14:13.897Z,100729.41
2023-01-04T08:16:45.923Z,100748.03
2023-01-04T08:19:18.366Z,100740.22
2023-01-04T08:21:49.517Z,100755.09
2023-01-04T08:24:22.763Z,100756.75
2023-01-04T08:26:56.452Z,100751.53
2023-01-04T08:29:34.381Z,100719.88
2023-01-04T08:32:05.278Z,100740.03
2023-01-04T08:34:35.919Z,100740.66
2023-01-04T08:37:06.414Z,100739.19
2023-01-04T08:39:37.349Z,100740.97
2023-01-04T08:42:22.128Z,100745.38
2023-01-04T08:45:01.568Z,100697.19
2023-01-04T08:47:33.032Z,100723.53
2023-01-04T08:50:10.481Z,100708.75
2023-01-04T08:52:41.695Z,100717.66
2023-01-04T08:55:14.565Z,100726.25
2023-01-04T08:57:48.775Z,100721.78
2023-01-04T09:00:21.776Z,100707.72
2023-01-04T09:02:52.823Z,100719.84
2023-01-04T09:05:23.799Z,100718.94
2023-01-04T09:07:54.352Z,100723.81
2023-01-04T09:10:24.775Z,100717.75
2023-01-04T09:12:57.909Z,100720.25
2023-01-04T09:15:28.257Z,100717.91
2023-01-04T09:18:30.355Z,100721.44
2023-01-04T09:20:49.454Z,100720.88
2023-01-04T09:23:20.009Z,100712.75
2023-01-04T09:25:50.400Z,100700.66
2023-01-04T09:28:23.551Z,100691.34
2023-01-04T09:30:54.128Z,100681.59
2023-01-04T09:33:41.287Z,100680.00
2023-01-04T09:36:17.513Z,100669.94
2023-01-04T09:38:49.306Z,100673.97
2023-01-04T09:41:27.159Z,100671.28
2023-01-04T09:44:04.112Z,100672.47
2023-01-04T09:46:42.067Z,100668.63
2023-01-04T09:49:21.392Z,100658.88
2023-01-04T09:52:01.198Z,100670.41
2023-01-04T09:54:38.916Z,100665.41
2023-01-04T09:57:18.277Z,100654.03
2023-01-04T09:59:54.396Z,100661.56
2023-01-04T10:02:32.852Z,100653.13
2023-01-04T10:05:08.436Z,100657.44
2023-01-04T10:07:39.340Z,100638.34
2023-01-04T10:10:16.083Z,100629.59
2023-01-04T10:13:00.126Z,100625.44
2023-01-04T10:15:41.703Z,100615.94
2023-01-04T10:21:35.503Z,100623.44
2023-01-04T10:24:23.398Z,100614.94
2023-01-04T10:27:02.143Z,100616.72
2023-01-04T10:29:45.160Z,100601.63
2023-01-04T10:32:25.537Z,100603.16
2023-01-04T10:34:56.514Z,100604.19
2023-01-04T10:37:31.099Z,100528.34
2023-01-04T10:40:01.594Z,100600.66
2023-01-04T10:42:36.411Z,100604.66
2023-01-04T10:45:16.399Z,100604.53
2023-01-04T10:48:00.053Z,100596.53
2023-01-04T10:50:36.822Z,100593.28
2023-01-04T10:53:13.282Z,100593.75
2023-01-04T10:56:23.673Z,100583.13
2023-01-04T10:58:46.368Z,100589.63
2023-01-04T11:01:23.872Z,100575.00
2023-01-04T11:04:05.468Z,100564.59
2023-01-04T11:06:42.872Z,100582.34
2023-01-04T11:09:25.149Z,100578.97
2023-01-04T11:11:59.532Z,100585.63
2023-01-04T11:14:36.783Z,100579.09
2023-01-04T11:17:11.175Z,100560.13
2023-01-04T11:19:45.494Z,100562.78
2023-01-04T11:22:18.804Z,100562.19
2023-01-04T11:25:33.110Z,100554.50
2023-01-04T11:27:50.357Z,100553.75
2023-01-04T11:30:25.559Z,100547.69
2023-01-04T11:33:03.043Z,100556.00
2023-01-04T11:35:45.057Z,100551.09
2023-01-04T11:38:18.803Z,100553.00
2023-01-04T11:41:08.059Z,100549.00
2023-01-04T11:43:41.145Z,100540.56
2023-01-04T11:46:27.148Z,100539.97
2023-01-04T11:48:58.217Z,100518.22
2023-01-04T11:51:41.337Z,100521.31
2023-01-04T11:54:22.946Z,100527.63
2023-01-04T11:57:11.856Z,100525.13
2023-01-04T11:59:42.892Z,100513.75
2023-01-04T12:05:29.506Z,100514.72
2023-01-04T12:08:03.480Z,100518.41
2023-01-04T12:10:35.042Z,100504.59
2023-01-04T12:13:05.897Z,100508.16
2023-01-04T12:15:42.051Z,100496.53
2023-01-04T12:18:19.276Z,100476.91
2023-01-04T12:20:50.089Z,100492.06
2023-01-04T12:23:23.345Z,100470.16
2023-01-04T12:25:55.163Z,100474.31
2023-01-04T12:28:37.717Z,100482.75
2023-01-04T12:31:30.659Z,100477.59
2023-01-04T12:34:02.719Z,100462.19
2023-01-04T12:37:04.543Z,100466.00
2023-01-04T12:39:48.823Z,100465.38
2023-01-04T12:42:27.299Z,100447.00
2023-01-04T12:45:04.682Z,100437.31
2023-01-04T12:48:01.873Z,100462.72
2023-01-04T12:50:34.913Z,100436.78
2023-01-04T12:53:29.051Z,100442.56
2023-01-04T12:56:01.279Z,100449.38
2023-01-04T12:59:24.586Z,100437.66
2023-01-04T13:02:23.099Z,100435.00
2023-01-04T13:05:25.662Z,100449.38
2023-01-04T13:07:51.415Z,100431.63
2023-01-04T13:10:29.799Z,100435.00
2023-01-04T13:13:25.919Z,100431.75
2023-01-04T13:16:11.813Z,100426.59
2023-01-04T13:18:44.821Z,100436.16
2023-01-04T13:21:17.354Z,100405.00
2023-01-04T13:23:54.271Z,100421.91
2023-01-04T13:26:48.365Z,100435.41
2023-01-04T13:29:24.801Z,100430.75
2023-01-04T13:31:59.351Z,100416.53
2023-01-04T13:34:34.490Z,100414.00
2023-01-04T13:37:18.962Z,100412.38
2023-01-04T13:39:50.460Z,100405.84
2023-01-04T13:42:28.110Z,100401.69
2023-01-04T13:45:25.829Z,100403.56
2023-01-04T13:48:00.758Z,100398.69
2023-01-04T13:50:40.294Z,100396.28
2023-01-04T13:53:22.457Z,100393.00
2023-01-04T13:55:55.058Z,100384.31
2023-01-04T13:58:27.360Z,100390.34
2023-01-04T14:01:04.181Z,100395.66
2023-01-04T14:03:43.133Z,100378.16
2023-01-04T14:06:24.225Z,100361.53
2023-01-04T14:09:03.111Z,100374.28
2023-01-04T14:11:49.530Z,100375.13
2023-01-04T14:14:36.445Z,100360.78
2023-01-04T14:17:46.172Z,100365.94
2023-01-04T14:20:35.246Z,100358.50
2023-01-04T14:23:06.673Z,100359.41
2023-01-04T14:25:48.740Z,100358.50
2023-01-04T14:28:41.786Z,100340.38
2023-01-04T14:31:37.993Z,100354.03
2023-01-04T14:34:17.431Z,100359.50
2023-01-04T14:36:48.107Z,100349.06
2023-01-04T14:39:27.772Z,100363.53
2023-01-04T14:42:00.394Z,100342.03
2023-01-04T14:44:36.146Z,100344.94
2023-01-04T14:47:08.819Z,100326.28
2023-01-04T14:49:41.840Z,100338.69
2023-01-04T14:52:15.789Z,100334.91
2023-01-04T14:54:46.297Z,100333.38
2023-01-04T14:57:17.319Z,100325.81
2023-01-04T14:59:49.091Z,100327.22
2023-01-04T15:02:20.703Z,100331.94
2023-01-04T15:04:54.381Z,100352.91
2023-01-04T15:07:36.775Z,100338.63
2023-01-04T15:10:09.749Z,100355.16
2023-01-04T15:12:40.256Z,100356.16
2023-01-04T15:15:13.121Z,100333.72
2023-01-04T15:17:43.975Z,100348.63
2023-01-04T15:20:17.545Z,100334.28
2023-01-04T15:22:48.204Z,100341.97
2023-01-04T15:25:18.996Z,100351.44
2023-01-04T15:27:49.540Z,100325.19
2023-01-04T15:30:20.421Z,100324.97
2023-01-04T15:32:52.811Z,100339.22
2023-01-04T15:35:26.138Z,100341.63
2023-01-04T15:37:56.608Z,100335.06
2023-01-04T15:40:28.275Z,100334.16
2023-01-04T15:42:59.250Z,100349.81
2023-01-04T15:45:30.373Z,100341.50
2023-01-04T15:48:03.278Z,100343.00
2023-01-04T15:50:38.100Z,100333.81
2023-01-04T15:53:09.619Z,100343.91
2023-01-04T15:55:40.690Z,100344.75
2023-01-04T15:58:11.485Z,100336.44
2023-01-04T16:00:42.014Z,100337.34
2023-01-04T16:03:12.514Z,100333.41
2023-01-04T16:05:45.798Z,100345.03
2023-01-04T16:08:16.349Z,100340.22
2023-01-04T16:10:47.075Z,100336.06
2023-01-04T16:13:17.522Z,100324.47
2023-01-04T16:15:48.043Z,100342.88
2023-01-04T16:18:18.670Z,100323.56
2023-01-04T16:20:52.053Z,100308.31
2023-01-04T16:23:23.161Z,100326.59
2023-01-04T16:25:54.135Z,100324.06
2023-01-04T16:28:24.935Z,100309.44
2023-01-04T16:30:57.902Z,100308.69
2023-01-04T16:33:28.480Z,100319.81
2023-01-04T16:36:07.200Z,100324.06
2023-01-04T16:38:42.559Z,100317.41
2023-01-04T16:41:15.431Z,100311.22
2023-01-04T16:43:47.580Z,100306.91
2023-01-04T16:46:24.699Z,100302.75
2023-01-04T16:48:56.655Z,100290.53
2023-01-04T16:51:31.586Z,100288.25
2023-01-04T16:54:04.597Z,100297.84
2023-01-04T16:56:36.056Z,100299.47
2023-01-04T16:59:07.403Z,100286.50
2023-01-04T17:01:48.877Z,100278.78
2023-01-04T17:04:22.186Z,100267.56
2023-01-04T17:06:58.398Z,100265.81
2023-01-04T17:09:29.101Z,100265.69
2023-01-04T17:17:46.520Z,100281.06
2023-01-04T17:20:17.434Z,100281.97
2023-01-04T17:22:50.766Z,100284.72
2023-01-04T17:25:22.205Z,100269.34
2023-01-04T17:27:52.649Z,100239.94
2023-01-04T17:30:23.503Z,100257.75
2023-01-04T17:32:54.076Z,100270.47
2023-01-04T17:35:27.225Z,100278.94
2023-01-04T17:38:00.490Z,100285.59
2023-01-04T17:40:31.095Z,100285.22
2023-01-04T17:43:01.687Z,100290.28
2023-01-04T17:45:32.320Z,100289.03
2023-01-04T17:48:03.039Z,100280.28
2023-01-04T17:50:33.709Z,100267.94
2023-01-04T17:53:06.834Z,100276.91
2023-01-04T17:55:37.970Z,100286.09
2023-01-04T17:58:12.028Z,100261.41
2023-01-04T18:00:43.726Z,100283.97
2023-01-04T18:03:14.353Z,100280.22
2023-01-04T18:06:07.071Z,100249.44
2023-01-04T18:08:46.035Z,100264.81
2023-01-04T18:11:17.714Z,100251.91
2023-01-04T18:13:48.742Z,100254.56
2023-01-04T18:16:25.463Z,100267.31
2023-01-04T18:18:56.818Z,100264.16
2023-01-04T18:21:30.836Z,100265.53
2023-01-04T18:27:20.796Z,100277.16
2023-01-04T18:29:50.171Z,100276.03
2023-01-04T18:32:20.831Z,100272.09
2023-01-04T18:34:51.534Z,100275.66
2023-01-04T18:37:22.210Z,100276.16
2023-01-04T18:39:55.463Z,100265.06
2023-01-04T18:42:26.053Z,100240.59
2023-01-04T18:44:57.203Z,100280.56
2023-01-04T18:47:28.042Z,100264.81
2023-01-04T18:49:58.534Z,100264.56
2023-01-04T18:52:29.578Z,100258.13
2023-01-04T18:55:04.015Z,100259.91
2023-01-04T18:57:34.587Z,100262.66
2023-01-04T19:00:05.714Z,100246.00
2023-01-04T19:02:36.486Z,100257.72
2023-01-04T19:05:07.878Z,100261.03
2023-01-04T19:07:41.678Z,100260.38
2023-01-04T19:10:15.080Z,100255.34
2023-01-04T19:12:46.278Z,100256.34
2023-01-04T19:15:16.738Z,100251.94
2023-01-04T19:17:47.464Z,100260.25
2023-01-04T19:20:17.927Z,100248.78
2023-01-04T19:22:48.485Z,100250.28
2023-01-04T19:25:27.848Z,100256.22
2023-01-04T19:27:59.071Z,100254.34
2023-01-04T19:30:30.187Z,100259.75
2023-01-04T19:33:01.323Z,100255.47
2023-01-04T19:35:32.031Z,100253.69
2023-01-04T19:38:02.827Z,100264.06
2023-01-04T19:40:36.034Z,100248.41
2023-01-04T19:43:07.411Z,100249.03
2023-01-04T19:45:41.884Z,100258.13
2023-01-04T19:48:12.412Z,100246.28
2023-01-04T19:50:42.941Z,100255.47
2023-01-04T19:53:14.092Z,100246.13
2023-01-04T19:55:47.197Z,100252.06
2023-01-04T19:58:17.796Z,100230.03
2023-01-04T20:00:54.460Z,100238.09
2023-01-04T20:03:26.148Z,100241.63
2023-01-04T20:05:57.681Z,100253.47
2023-01-04T20:08:28.241Z,100260.00
2023-01-04T20:11:04.194Z,100255.47
2023-01-04T20:13:35.883Z,100266.22
2023-01-04T20:16:07.693Z,100255.84
2023-01-04T20:18:39.561Z,100252.19
2023-01-04T20:21:12.864Z,100260.66
2023-01-04T20:23:43.871Z,100264.03
2023-01-04T20:26:20.714Z,100256.63
2023-01-04T20:28:52.110Z,100245.50
2023-01-04T20:31:23.021Z,100261.47
2023-01-04T20:33:53.549Z,100274.97
2023-01-04T20:36:26.739Z,100280.63
2023-01-04T20:38:58.290Z,100271.78
2023-01-04T20:41:33.195Z,100267.50
2023-01-04T20:44:02.880Z,100263.47
2023-01-04T20:46:34.726Z,100257.81
2023-01-04T20:49:06.387Z,100253.28
2023-01-04T20:51:36.892Z,100254.28
2023-01-04T20:54:07.588Z,100294.28
2023-01-04T20:56:44.275Z,100282.59
2023-01-04T20:59:14.731Z,100286.72
2023-01-04T21:01:47.945Z,100258.69
2023-01-04T21:04:18.572Z,100292.66
2023-01-04T21:06:49.094Z,100288.47
2023-01-04T21:09:19.616Z,100289.94
2023-01-04T21:11:55.624Z,100294.41
2023-01-04T21:14:27.525Z,100304.50
2023-01-04T21:16:58.031Z,100313.97
2023-01-04T21:19:28.832Z,100317.94
2023-01-04T21:21:59.771Z,100335.38
2023-01-04T21:24:30.395Z,100324.34
2023-01-04T21:27:03.769Z,100318.81
2023-01-04T21:29:34.627Z,100293.72
2023-01-04T21:32:05.138Z,100313.25
2023-01-04T21:34:35.585Z,100327.00
2023-01-04T21:37:06.283Z,100313.88
2023-01-04T21:39:36.954Z,100335.00
2023-01-04T21:42:09.833Z,100333.84
2023-01-04T21:44:40.166Z,100321.72
2023-01-04T21:47:10.667Z,100338.28
2023-01-04T21:49:43.919Z,100304.59
2023-01-04T21:52:14.786Z,100311.41
2023-01-04T21:54:45.393Z,100323.19
2023-01-04T21:57:18.584Z,100307.22
2023-01-04T21:59:49.314Z,100321.56
2023-01-04T22:02:22.491Z,100332.47
2023-01-04T22:04:52.973Z,100327.31
2023-01-04T22:07:23.497Z,100315.50
2023-01-04T22:09:57.688Z,100308.13
2023-01-04T22:12:31.124Z,100316.94
2023-01-04T22:15:03.417Z,100310.88
2023-01-04T22:17:33.869Z,100307.69
2023-01-04T22:20:04.494Z,100303.34
2023-01-04T22:22:35.240Z,100309.06
2023-01-04T22:25:05.677Z,100310.75
2023-01-04T22:27:38.938Z,100318.09
2023-01-04T22:30:10.743Z,100311.91
2023-01-04T22:32:41.509Z,100305.50
2023-01-04T22:35:12.607Z,100322.88
2023-01-04T22:37:43.153Z,100319.94
2023-01-04T22:40:15.769Z,100324.69
2023-01-04T22:42:48.804Z,100328.63
2023-01-04T22:45:19.492Z,100318.50
2023-01-04T22:47:50.018Z,100353.19
2023-01-04T22:50:22.182Z,100350.06
2023-01-04T22:52:54.100Z,100355.38
2023-01-04T22:55:35.135Z,100366.56
2023-01-04T22:58:18.897Z,100365.09
2023-01-04T23:00:49.432Z,100359.03
2023-01-04T23:03:20.156Z,100344.41
2023-01-04T23:05:50.867Z,100355.03
2023-01-04T23:08:21.412Z,100354.41
2023-01-04T23:10:51.819Z,100362.22
2023-01-04T23:13:25.362Z,100352.16
2023-01-04T23:15:57.948Z,100353.94
2023-01-04T23:18:29.440Z,100357.34
2023-01-04T23:21:00.399Z,100342.56
2023-01-04T23:23:31.853Z,100355.31
2023-01-04T23:26:08.764Z,100346.44
2023-01-04T23:28:41.843Z,100352.84
2023-01-04T23:31:16.176Z,100359.19
2023-01-04T23:33:47.005Z,100352.78
2023-01-04T23:36:19.221Z,100361.19
2023-01-04T23:38:53.906Z,100360.72
2023-01-04T23:41:44.717Z,100359.56
2023-01-04T23:46:56.539Z,100364.34
2023-01-04T23:49:29.032Z,100356.03
2023-01-04T23:52:00.448Z,100355.38
2023-01-04T23:54:31.488Z,100366.44
2023-01-04T23:57:03.842Z,100377.88
2023-01-04T23:59:37.183Z,100372.28
